Igor I Sikorsky Memorial Airport Bridgeport US
ICAO: KBDR
IATA: BDR
Category: Medium
Scheduled Services: Yes

Elevation: 9 ft
TransAlt. 18000 ft.

Airport Communications:
NEW YORK APP/DEP:124.075
ATIS:119.15
CLNC DEL:121.75
CTAF:120.9
GND:121.9
BRIDGEPORT RDO:108.8
BRIDGEPORT TWR:120.9
UNICOM:123

KBDR Zoom In..

Runways:

(A) RW 06 length 4677 ft width 150 ft
ILS 110.70 / hdg 58

(B) RW 11 length 4761 ft width 150 ft
---- / hdg 111

(C) RW 24 length 4677 ft width 150 ft
---- / hdg 238

(D) RW 29 length 4761 ft width 150 ft
---- / hdg 291

Location; KBDR
Day. 26 / Time. 03.52 Zulu
* Altimeter: 29.82
* Temperature: 18° c. 64.4°f.
* Wind from: 220° Speed 04 kn.
Dewpoint: 15° c.
Visibility: 10 Statute Miles.
Clouds: Clear (automated report).

KBDR 260352Z AUTO 22004KT 10SM CLR 18/15 A2982 RMK AO2 SLP099 T01830150


Wind From 220°
Speed 04 kn.

 
 
jpsmedia.com for Web Design SOUNDCLOUD worldairports.se 2018   terms of use